Aviation Digital Data Service (ADDS)

Output produced by TAFs form (1412 UTC 23 March 2017)
found at http://www.aviationweather.gov/adds/tafs/
 
KMDT 231152Z 2312/2412 33005KT P6SM SKC 
     FM231800 27004KT P6SM SCT250 
     FM240000 14003KT P6SM BKN150 
     FM241100 17005KT P6SM -RA OVC050 
     PROB30 2411/2412 -FZRA